Stations météo

Publicité
Chamonix, France (7469): Température de l'air & dewpoint: 03.12.2019 13:00:00 - 09.12.2019 13:00:00 (CET)Chamonix, France (7469): Vitesse du vent & gusts: 03.12.2019 13:00:00 - 09.12.2019 13:00:00 (CET)Chamonix, France (7469): Direction du vent: 03.12.2019 13:00:00 - 09.12.2019 13:00:00 (CET)Chamonix, France (7469): Quantités de précipitations: 03.12.2019 13:00:00 - 09.12.2019 13:00:00 (CET)
Date & Time tt [°C] td [°C] ff [km/h] ff [knt] fx [km/h] fx [knt] dd rr [mm]
09.12.2019 13:00:00 - - - - - - - -
09.12.2019 12:00:00 1,4 0,1 4 2 22 12 SW 0,2
09.12.2019 11:00:00 2,2 -0,2 9 5 21 11 S 0,0
09.12.2019 10:00:00 2,4 0,3 8 4 18 10 SW 0,0
09.12.2019 09:00:00 1,6 0,7 4 2 22 12 SSW 0,0
09.12.2019 08:00:00 1,7 0,2 8 4 22 12 SSW 0,6
09.12.2019 07:00:00 1,8 0,8 0 0 16 9 N -
09.12.2019 06:00:00 1,9 0,9 2 1 18 10 NE 0,2
09.12.2019 05:00:00 3,1 1,5 5 3 44 24 SW 0,8
09.12.2019 04:00:00 2,7 1,7 4 2 22 12 ESE 2,0
09.12.2019 03:00:00 3,6 2,3 11 6 35 19 S 0,0
09.12.2019 02:00:00 0,6 -0,3 4 2 9 5 NE 0,0
09.12.2019 01:00:00 0,5 -0,6 4 2 11 6 NE -
09.12.2019 00:00:00 0,9 -1,0 2 1 15 8 NE 0,0
08.12.2019 23:00:00 1,2 -1,2 5 3 11 6 WSW 0,0
08.12.2019 22:00:00 0,4 -1,4 5 3 15 8 ESE 0,0
08.12.2019 21:00:00 -0,4 -1,7 4 2 8 4 NE 0,0
08.12.2019 20:00:00 -1,1 -2,2 2 1 5 3 NW 0,0
08.12.2019 19:00:00 -1,5 -2,8 2 1 8 4 NE -
08.12.2019 18:00:00 -0,8 -2,4 2 1 5 3 NNE 0,0
08.12.2019 17:00:00 1,0 -1,9 4 2 8 4 E 0,0
08.12.2019 16:00:00 6,4 -1,5 2 1 11 6 S 0,0
08.12.2019 15:00:00 7,2 0,6 0 0 8 4 N 0,0
08.12.2019 14:00:00 6,3 -1,4 4 2 9 5 SSW 0,0
08.12.2019 13:00:00 2,2 1,2 4 2 8 4 S -
08.12.2019 12:00:00 -2,0 -2,7 2 1 9 5 E 0,0
08.12.2019 11:00:00 -2,7 -3,2 4 2 8 4 SSW 0,0
08.12.2019 10:00:00 -3,7 -4,4 0 0 5 3 N 0,0
08.12.2019 09:00:00 -4,1 -4,8 2 1 5 3 E 0,0
08.12.2019 08:00:00 -4,4 -5,1 2 1 8 4 E 0,0
08.12.2019 07:00:00 -4,3 -5,0 2 1 8 4 E -
08.12.2019 06:00:00 -4,0 -4,7 2 1 8 4 ENE 0,0
08.12.2019 05:00:00 -3,8 -4,5 0 0 8 4 N 0,0
08.12.2019 04:00:00 -3,5 -4,0 0 0 8 4 N 0,0
08.12.2019 03:00:00 -3,3 -3,8 0 0 8 4 N 0,0
08.12.2019 02:00:00 -2,9 -3,4 4 2 9 5 N 0,0
08.12.2019 01:00:00 -2,8 -3,2 2 1 4 2 NNE -
08.12.2019 00:00:00 -2,7 -3,2 0 0 4 2 N 0,0
07.12.2019 23:00:00 -2,3 -2,7 2 1 4 2 NE 0,0
07.12.2019 22:00:00 -2,1 -2,7 0 0 8 4 N 0,0
07.12.2019 21:00:00 -1,6 -2,2 2 1 11 6 E 0,0
07.12.2019 20:00:00 -1,1 -1,8 4 2 11 6 NNW 0,0
07.12.2019 19:00:00 -0,5 -1,5 2 1 8 4 E -
07.12.2019 18:00:00 1,1 -0,5 0 0 5 3 N 0,0
07.12.2019 17:00:00 3,7 0,6 0 0 8 4 N 0,0
07.12.2019 16:00:00 6,1 1,2 2 1 18 10 N 0,0
07.12.2019 15:00:00 8,1 0,6 4 2 18 10 SSW 0,0
07.12.2019 14:00:00 8,6 0,3 5 3 16 9 S 0,0
07.12.2019 13:00:00 7,9 1,7 4 2 11 6 S -
07.12.2019 12:00:00 2,5 1,3 0 0 4 2 N 0,0
07.12.2019 11:00:00 1,1 0,5 0 0 8 4 N 0,0
07.12.2019 10:00:00 0,0 -0,7 4 2 8 4 NNE 0,0
07.12.2019 09:00:00 0,4 -0,3 0 0 8 4 N 0,0
07.12.2019 08:00:00 0,7 -0,2 2 1 11 6 N 0,0
07.12.2019 07:00:00 0,6 -0,3 4 2 9 5 ENE -
07.12.2019 06:00:00 0,6 -0,3 2 1 8 4 NE 0,0
07.12.2019 05:00:00 0,8 -0,1 4 2 9 5 N 0,0
07.12.2019 04:00:00 0,9 -0,1 2 1 13 7 SSW 0,0
07.12.2019 03:00:00 0,6 -0,4 4 2 11 6 NW 0,0
07.12.2019 02:00:00 0,3 -0,7 4 2 9 5 NE 0,0
07.12.2019 01:00:00 0,4 -1,0 4 2 13 7 NNE -
07.12.2019 00:00:00 0,1 -1,5 4 2 11 6 E 0,0
06.12.2019 23:00:00 -0,4 -1,8 2 1 8 4 ESE 0,0
06.12.2019 22:00:00 -0,7 -2,1 0 0 8 4 N 0,0
06.12.2019 21:00:00 -1,0 -2,4 0 0 9 5 N 0,0
06.12.2019 20:00:00 -1,7 -3,1 0 0 8 4 N 0,0
06.12.2019 19:00:00 -1,3 -2,9 4 2 9 5 E -
06.12.2019 18:00:00 -1,2 -2,9 2 1 5 3 E 0,0
06.12.2019 17:00:00 -0,1 -3,0 2 1 5 3 NNW 0,0
06.12.2019 16:00:00 3,9 -1,5 2 1 5 3 E 0,0
06.12.2019 15:00:00 8,0 -3,8 4 2 5 3 WSW 0,0
06.12.2019 14:00:00 7,6 -2,7 2 1 5 3 SSW 0,0
06.12.2019 13:00:00 1,2 -0,4 0 0 5 3 N -
06.12.2019 12:00:00 -4,0 -4,7 0 0 5 3 N 0,0
06.12.2019 11:00:00 -4,4 -5,1 0 0 5 3 N 0,0
06.12.2019 10:00:00 -4,8 -5,5 2 1 4 2 NNW 0,0
06.12.2019 09:00:00 -5,3 -6,1 2 1 5 3 E 0,0
06.12.2019 08:00:00 -5,5 -6,3 0 0 4 2 N 0,0
06.12.2019 07:00:00 -5,3 -6,1 2 1 8 4 N -
06.12.2019 06:00:00 -5,2 -5,9 2 1 5 3 ENE 0,0
06.12.2019 05:00:00 -5,1 -5,8 0 0 4 2 N 0,0
06.12.2019 04:00:00 -4,8 -5,5 0 0 9 5 N 0,0
06.12.2019 03:00:00 -4,7 -5,4 0 0 5 3 N 0,0
06.12.2019 02:00:00 -4,3 -5,0 0 0 8 4 N 0,0
06.12.2019 01:00:00 -3,9 -4,6 2 1 5 3 ENE -
06.12.2019 00:00:00 -3,7 -4,4 2 1 5 3 N 0,0
05.12.2019 23:00:00 -3,3 -4,0 0 0 8 4 N 0,0
05.12.2019 22:00:00 -3,0 -3,7 0 0 8 4 N 0,0
05.12.2019 21:00:00 -2,8 -3,5 0 0 4 2 N 0,0
05.12.2019 20:00:00 -2,2 -2,9 0 0 5 3 N 0,0
05.12.2019 19:00:00 -1,9 -2,7 2 1 4 2 NW -
05.12.2019 18:00:00 -1,2 -2,3 2 1 8 4 NNE 0,0
05.12.2019 17:00:00 0,4 -1,4 0 0 8 4 N 0,0
05.12.2019 16:00:00 3,7 -0,1 4 2 8 4 WNW 0,0
05.12.2019 15:00:00 7,3 2,2 0 0 8 4 N 0,0
05.12.2019 14:00:00 10,3 1,1 2 1 5 3 S 0,0
05.12.2019 13:00:00 5,1 0,3 2 1 8 4 SW 0,0
05.12.2019 12:00:00 -0,2 -0,9 0 0 4 2 N 0,0
05.12.2019 11:00:00 -1,8 -2,5 2 1 8 4 NNE -
05.12.2019 10:00:00 -2,8 -3,5 2 1 5 3 ENE 0,0
05.12.2019 09:00:00 -3,9 -4,6 2 1 8 4 NE 0,0
05.12.2019 08:00:00 -4,6 -5,3 2 1 8 4 E 0,0
05.12.2019 07:00:00 -4,5 -5,2 0 0 8 4 N -
05.12.2019 06:00:00 -4,4 -5,1 4 2 9 5 NNE 0,0
05.12.2019 05:00:00 -4,2 -4,9 2 1 8 4 NE 0,0
05.12.2019 04:00:00 -4,2 -4,9 2 1 8 4 NNE 0,0
05.12.2019 03:00:00 -4,0 -4,7 4 2 8 4 ENE 0,0
05.12.2019 02:00:00 -3,5 -4,0 0 0 8 4 N 0,0
05.12.2019 01:00:00 -3,3 -3,8 2 1 9 5 N -
05.12.2019 00:00:00 -2,9 -3,4 2 1 9 5 ENE 0,0
04.12.2019 23:00:00 -2,6 -3,2 2 1 9 5 E 0,0
04.12.2019 22:00:00 -1,9 -2,5 2 1 11 6 NNE 0,0
04.12.2019 21:00:00 -2,2 -2,8 4 2 9 5 N 0,0
04.12.2019 20:00:00 -1,6 -2,2 2 1 8 4 NE 0,0
04.12.2019 19:00:00 -1,3 -1,9 4 2 9 5 SSW -
04.12.2019 18:00:00 -1,2 -1,9 4 2 9 5 NNW 0,0
04.12.2019 17:00:00 0,0 -1,0 4 2 15 8 SSE 0,0
04.12.2019 16:00:00 0,9 -1,0 4 2 13 7 ENE 0,0
04.12.2019 15:00:00 5,3 0,1 2 1 24 13 N 0,0
04.12.2019 14:00:00 3,9 0,1 8 4 29 16 S 0,0
04.12.2019 13:00:00 1,4 0,1 2 1 11 6 ESE -
04.12.2019 12:00:00 -3,3 -4,0 2 1 8 4 NNW 0,0
04.12.2019 11:00:00 -3,8 -4,5 2 1 8 4 NE 0,0
04.12.2019 10:00:00 -4,4 -5,1 0 0 9 5 N 0,0
04.12.2019 09:00:00 -5,0 -5,8 2 1 8 4 NNE 0,0
04.12.2019 08:00:00 -5,2 -6,0 2 1 8 4 NNE 0,0
04.12.2019 07:00:00 -5,3 -6,1 4 2 8 4 ENE -
04.12.2019 06:00:00 -5,3 -6,1 0 0 8 4 N 0,0
04.12.2019 05:00:00 -5,1 -5,8 0 0 5 3 N 0,0
04.12.2019 04:00:00 -4,9 -5,6 2 1 8 4 ENE 0,0
04.12.2019 03:00:00 -4,7 -5,4 2 1 8 4 NNW 0,0
04.12.2019 02:00:00 -4,3 -4,8 2 1 5 3 NNE 0,0
04.12.2019 01:00:00 -3,9 -4,3 2 1 5 3 NE -
04.12.2019 00:00:00 -3,4 -3,8 0 0 5 3 N 0,0
03.12.2019 23:00:00 -3,1 -3,5 0 0 8 4 N 0,0
03.12.2019 22:00:00 -2,6 -3,0 2 1 8 4 E 0,0
03.12.2019 21:00:00 -2,4 -2,8 0 0 8 4 N 0,0
03.12.2019 20:00:00 -2,1 -2,5 0 0 5 3 N 0,0
03.12.2019 19:00:00 -1,7 -2,1 0 0 8 4 N -
03.12.2019 18:00:00 -1,6 -2,2 2 1 8 4 E 0,0
03.12.2019 17:00:00 -1,4 -2,1 0 0 9 5 N 0,0
03.12.2019 16:00:00 -0,3 -1,7 4 2 9 5 SSW 0,0
03.12.2019 15:00:00 0,4 -1,2 2 1 11 6 WSW 0,0
03.12.2019 14:00:00 0,1 -1,8 4 2 11 6 SSW 0,0
03.12.2019 13:00:00 -0,4 -1,8 2 1 8 4 SE -

tt = Température de l'air
td = dewpoint
ff = Vitesse du vent
fx = gusts
dd = Direction du vent
rr = Quantités de précipitations

stations d'obs. à proximité